This is the latest recevied weather packets stored in our database for station/object MEGLR. If no packets are shown the sender has not sent any weather packets the latest 10 day(s).
| Time | Temp. | Humidity | Pressure | Rain* | Wind** | Luminosity | Snow |
|---|---|---|---|---|---|---|---|
| 1777806003 | 18.89° C | 44% | 0 hPa | - | - | - | - |
| 1777805403 | 18.89° C | 43% | 0 hPa | - | - | - | - |
| 1777804803 | 18.33° C | 44% | 0 hPa | - | - | - | - |
| 1777804203 | 19.44° C | 38% | 0 hPa | - | - | - | - |
| 1777803602 | 19.44° C | 36% | 0 hPa | - | - | - | - |
| 1777803002 | 17.22° C | 61% | 0 hPa | - | - | - | - |
| 1777802409 | 16.67° C | 65% | 0 hPa | - | - | - | - |
| 1777801808 | 17.22° C | 57% | 0 hPa | - | - | - | - |
| 1777801203 | 17.22° C | 57% | 0 hPa | - | - | - | - |
| 1777800604 | 17.22° C | 63% | 0 hPa | - | - | - | - |
| 1777800003 | 16.67° C | 65% | 0 hPa | - | - | - | - |
| 1777799403 | 15° C | 77% | 0 hPa | - | - | - | - |
| 1777798803 | 12.22° C | 99% | 0 hPa | - | - | - | - |
| 1777798203 | 11.67° C | 97% | 0 hPa | - | - | - | - |
| 1777797603 | 12.22° C | 96% | 0 hPa | - | - | - | - |
| 1777797004 | 12.22° C | 94% | 0 hPa | - | - | - | - |
| 1777796404 | 12.78° C | 91% | 0 hPa | - | - | - | - |
| 1777795802 | 13.33° C | 89% | 0 hPa | - | - | - | - |
| 1777795203 | 12.78° C | 91% | 0 hPa | - | - | - | - |
| 1777794603 | 12.78° C | 91% | 0 hPa | - | - | - | - |
| 1777794003 | 12.78° C | 93% | 0 hPa | - | - | - | - |
| 1777793404 | 12.22° C | 94% | 0 hPa | - | - | - | - |
| 1777792803 | 12.22° C | 95% | 0 hPa | - | - | - | - |
| 1777792203 | 12.22° C | 94% | 0 hPa | - | - | - | - |
| 1777791604 | 12.78° C | 93% | 0 hPa | - | - | - | - |
* Rain since midnight (hover to see other rain measurements)
** Current wind speed in m/s (hover to see current wind gust speed)